Timeline UpdatesTrip UpdatesNews PostsPvt PostsTravel TipsAdmin PostsConv PostsFollowed PostsChat RequestsBlog PostsPNR Posts

Disclaimer
Search
 
 
Tue Sep 2, 2014 10:03:01 ISTHomeTrainsΣChainsAtlasPNRForumGalleryNewsFAQTripsMembersLoginFeedback
No Recent News for this Train
Other Trains in the News **new
Latest...
.
Fri Dec 13, 2013 (03:40PM)
⇐ Return Journey: Train# 12833

12834/Howrah - Ahmedabad SF Express

Time-Table HAS CHANGED.
Yesterday (11:35PM)
Change Departure Station:
Change Arrival Station:
Post a Train Travel TipPost a Train Travel Tip **new
Post a Comment/Question/Picture/VideoPost a Comment/Question/Picture/Video
Pantry/Catering
✓ Pantry Car Avbl
✓ Catering Avbl
RSA - Rake Sharing
Rake/Coach Composition
LOCO(SRC WAP 4E)-SLR-GEN-S1-S2-S3-S4-S5-S6-S7-S8-S9-S10-S11-S12-PC-S13-B1-B2-A1-A2-GEN-SLR
Loco
Loco: SRC WAP 4 ... Entry# 289462
News    PNR    Forum    Time-Table    Availability    Fare Chart    Map    Arr/Dep History    Trips    Gallery    ΣChains    X/O    Timeline    
Travel Time: 3h 2m    4 halts    Distance: 170 km    Avg Speed: 56 km/hr
Type: SuperFast
Zone: SER/South Eastern
Departs @ 09:58
Platform# 3
SMTWTFS
Bharuch Junction/BH 
Arrives @ 13:00
Platform# 6
SMTWTFS
Ahmedabad Junction/ADI 

4 halts. 34 intermediate Stations between Bharuch Junction and Ahmedabad Junction

Show ALL intermediate Stations  Show Old Time-Table

#CodeStation NameX/OArrivesAvgDepartsAvgHaltPFDay#KmSpeedElevZoneAddress
1HWHKolkata Howrah Junction (23)  -23:55-221-1917.86510mERHowrah 711101, West Bengal
2MCAMecheda (6)  00:50 00:49-00:52 00:50-2 1m--2-1859.63410mSERdist - purba Medinipur, West Bengal
3PKUPanskura Junction (6)  01:13 01:12-01:15 01:13-2 1m--2-1847.2579mSERPanskura, West Bengal
4KGPKharagpur Junction (10)  02:00-02:05-5m32-1802.87742mSERKharagpur, West Bengal
5TATATatanagar Junction (5)XO  03:50-03:55-5m--2-1667.867164mSER91-657-2423026, Jharkhand
6CKPChakradharpur (3)  04:50 04:51-04:57 04:58-7m12-1605.579235mSERChakradharpur (West Singhbhum), Jharkhand
7ROURourkela Junction (5)X  06:15-06:30-15m32-1504.464198mSERRourkela, Odisha
8GPRaj Gangpur (3)  06:59 06:58-07:00 06:59-1m12-1474.672237mSERRaj Ganpur, Odisha
9BMBBamra (3)  07:29 07:28-07:30 07:29-1m--2-1440.056259mSERBamra PH : 06642-229268, Odisha
10JSGJharsuguda Junction (5)X  08:08-08:10-2m--2-1403.588236mSERJharsuguda, Odisha
11BRJNBrajrajnagar  08:18-08:20-2m--2-1391.867212mSECRBrajrajnagar, Odisha
12BPHBelpahar  08:28-08:30-2m--2-1382.985235mSECRBelpahar, Odisha
13RIGRaigarh (3)  09:06-09:11-5m--2-1331.893220mSECRRaigarh, Chhattisgarh
14KHSKharsiaX  09:33-09:35-2m--2-1297.991259mSECRNational Highway 200, Chhattisgarh
15BUABaradwarX  09:55-09:57-2m--2-1267.655256mSECRJanjgir-Champa, Chhattisgarh
16CPHChampa Junction (3)  10:14-10:19-5m32-1252.172264mSECRNational Highway 200 (07819-245767), Chhattisgarh
17NIANailaX  10:28-10:30-2m--2-1241.275273mSECRJanjgir, Chhattisgarh
18AKTAkaltara (4)X  10:42-10:44-2m--2-1226.329284mSECRDist. Janjgir Champa, Chhattisgarh
19BSPBilaspur Junction (8)X  11:40-11:55-15m22-1199.177271mSECRBilaspur, Chhattisgarh
20BYTBhatapara (4)X  12:31-12:33-2m22-1152.987270mSECRBanjari Road, Chhattisgarh
21TLDTilda (3)X  12:51-12:53-2m--2-1126.855291mSECRBanjari Rd, Chhattisgarh
22RRaipur Junction (6)X  13:35-13:45-10m52-1088.680297mSECRRaipur, Chhattisgarh
23BPHBBhilai Power House (3)XO  14:06-14:08-2m12-1060.617312mSECRBhilai, Chhattisgarh
24DURGDurg Junction (6)X  14:40-14:45-5m42-1051.787299mSECRPh: 91-788-2322059, Chhattisgarh
25RJNRaj Nandgaon (3)  15:06-15:08-2m--2-1021.286313mSECRRajnandgaon, Chhattisgarh
26DGGDongargarh (2)  15:30-15:32-2m12-989.776353mSECRDongargarh, Chhattisgarh
27AGNAmgaon (2)X  16:12-16:14-2m--2-939.247317mSECRGondia, Maharashtra
28GGondia Junction (7)X  16:43-16:48-5m22-916.492316mSECRGondia 441601, Maharashtra
29TROTirora (3)  17:07-17:09-2m--2-887.172282mSECRDist Gondiya, Maharashtra
30TMRTumsar Road (3)  17:26-17:28-2m--2-866.872267mSECRBhandara, Maharashtra
31BRDBhandara Road (2)X  17:43-17:45-2m22-848.893266mSECRState Highway 252, Maharashtra
32KPKamptee (3)X  18:16-18:18-2m--2-800.920290mSECRMH 441001, Maharashtra
33NGPNagpur Junction (8)X  19:00-19:10-10m32-786.620314mCRNagpur 440001, Maharashtra
34AJNIAjni (3)X  19:19-19:20-1m32-783.571310mCRNagpur 440003, Maharashtra
35WRWardha Junction (4)X  20:24-20:27-3m12-707.781289mCRWardha 442001, Maharashtra
36PLOPulgaon Junction (3)  20:49-20:50-1m22-678.167273mCRPulgaon, Maharashtra
37DMNDhamangaon (2)  21:08-21:09-1m--2-658.267300mCRDhamangaon, Maharashtra
38CNDChandur (2)X  21:24-21:25-1m--2-641.538331mCRAmravati Distt, Maharashtra
39BDBadnera Junction (4)X  22:10-22:15-5m12-612.886335mCRBadnera (Amravati) 444701, Maharashtra
40MZRMurtizapur (3)X  22:44-22:45-1m--2-570.974303mCRMurtajapur, Maharashtra
41AKAkola Junction (7)  23:15-23:20-5m12-533.893284mCRAkola-444001, Maharashtra
42SEGShegaon (2)  23:44-23:45-1m22-496.668281mCRShegaon 444203, Maharashtra
43JMJalamb Junction (3)  23:56-23:58-2m12-484.267259mCRJalamb, Maharashtra
44NNNanduraX  00:09-00:10-1m13-472.070267mCRNandura, Maharashtra
45MKUMalkapur (2)  00:34-00:35-1m23-444.150252mCRMalkapur, Maharashtra
46BSLBhusaval Junction (8)X  01:35-01:45-10m43-394.241208mCRBhusaval 425201, Maharashtra
47JLJalgaon Junction (4)X  02:20-02:25-5m23-370.051213mCRJalgaon 425001, Maharashtra
48DXGDharangaon (2)  03:00-03:01-1m13-340.351217mWRDharangaon, Maharashtra
49ANAmalner (2)  03:30-03:33-3m13-315.473188mWRAmalner, Maharashtra
50SNKSindkheda (1)  04:07-04:08-1m13-273.945178mWRState Highway 11, Maharashtra
51DDEDondaicha (2)X  04:34-04:35-1m23-254.549163mWRDondaicha, Maharashtra
52NDBNandurbar (3)  05:17-05:25-8m13-220.150203mWRNandurbar, Maharashtra
53NWUNavapur (2)  06:35-06:37-2m--3-162.255124mWRNavapur, Gujarat
54VYAVyara (2)  07:23-07:25-2m13-120.26090mWRVyara, Gujarat
55MIDMadhi (1)  07:40-07:42-2m13-105.35945mWRMadhi, Gujarat
56BIYBardoli (2)X  07:57-07:59-2m--3-90.53735mWRNear Bardoli Sugar Factory Bardoli, Gujarat
57UDNUdhna Junction (3)XO  08:43-08:45-2m13-63.31416mWRUdhna 394210, Gujarat
58STSurat (4)X  09:02-09:12-10m23-59.38119mWRSurat 395001, Gujarat
59BH»Bharuch Junction (5)»X  09:56-09:58-2m330.06619mWRBharuch, Gujarat
60BRCVadodara Junction (7)X  10:55 11:02-11:00 11:07-5m3370.56936mWRVadodara 390005, Gujarat
61ANNDAnand Junction (6)X  11:30 11:38-11:32 11:39-2 1m23106.35844mWRAnand, Gujarat
62NDNadiad Junction (4)X  11:53 11:58-11:55 11:59-2 1m--3124.86437mWRNadiad, Gujarat
63MANManinagar (2)X  12:39-12:41-2m13167.21050mWRAhmadabad, Gujarat
64ADI•Ahmedabad Junction (12)•  13:00--63170.3-51mWRAhmedabad, Gujarat
Scroll to Top
Scroll to Bottom